San Francisco, CA

11:24 AM PST en Diciembre 20, 2014 (GMT -0800)
SoMa | Change Station
CLOSE
Current Station
Estación meteorológica personal
Location: San Francisco, CA
Altura: 36 ft
Estaciones meteorológicas cercanas

Alt 36 ft 37.77 °N, 122.41 °W | Updated 1 minute ago

Nublado
Nublado
59.4 ° F
Sensación térmica 59.4 ° F
N
0.2
Viento Variable Viento desde SSE
Gusts 2.5 mph

Hoy
Alta -- | Baja -- ° F
--% Posibilidad de precipitaciones
Ayer
Alta -- | Baja -- ° F
Precip. -- pul
7:20 AM 4:53 PM
Creciente menguante, 2% visible
Presión 30.22 pul
Visibilidad 9.0 Millas
Nubes Baja 600 ft
Nubes dispersas 7000 ft
Muy nublado 13000 ft
Punto de rocío 54 ° F
Humedad 84%
Precipitaciones 0.00 pul
Espesor de la nieve No disponible.
UV 3.0 de una escala de 12
Polen 4.00 de una escala de 12
Calidad del aire No disponible.
Flu Activity No disponible.
METAR KSFO 201856Z 00000KT 9SM FEW006 SCT070 BKN130 15/14 A3022 RMK AO2 SLP233 T01500144

More Conditions Fewer Conditions

Presión 30.22 pul
Visibilidad 9.0 Millas
Nubes Baja 600 ft
Nubes dispersas 7000 ft
Muy nublado 13000 ft
Punto de rocío 54 ° F
Humedad 84%
Precipitaciones 0.00 pul
Espesor de la nieve No disponible.
UV 3.0 de una escala de 12
Polen 4.00 de una escala de 12
Calidad del aire No disponible.
Flu Activity No disponible.
METAR KSFO 201856Z 00000KT 9SM FEW006 SCT070 BKN130 15/14 A3022 RMK AO2 SLP233 T01500144

More Conditions Fewer Conditions

10-Day Weather Forecast

Almanac

Astronomía

Dec. 20, 2014 Salida Puesta
Hora real
Crepúsculo civil
Crepúsculo náutico
Crepúsculo astronómico
Luna
Horas de luz
Horas de luz
Tomorrow will be .
, % of the Moon is Illuminated

Extremos de hoy

Máximos del estado Bajos del estado

Community

WunderPhotos

Upload Photos

1,779,256 ¡fotos cargadas!

WunderBlogs® & News

Nearby

Calidad del aire

  Calidad del aire Índice AQ Contaminante
Not available.

Grosos de nieve

Estación Profundido Altura

Actividad de terremotos

Ciudad Distance Mag. Tiempo y dato
Magnitud mínima muestra es 2,5.

Temperaturas de aguas costeras

Lugar Temperatura

Estaciones meteorológicas cercanas